createdAt,value
2023-02-26T00:00:55.337Z,0
2023-02-26T00:01:56.243Z,0
2023-02-26T00:02:55.189Z,0
2023-02-26T00:03:55.084Z,0
2023-02-26T00:04:55.349Z,0
2023-02-26T00:05:54.496Z,0
2023-02-26T00:06:59.560Z,0
2023-02-26T00:07:55.412Z,0
2023-02-26T00:08:54.649Z,0
2023-02-26T00:09:54.917Z,0
2023-02-26T00:10:54.597Z,0
2023-02-26T00:11:55.101Z,0
2023-02-26T00:12:54.892Z,0
2023-02-26T00:13:55.606Z,0
2023-02-26T00:14:54.438Z,0
2023-02-26T00:15:54.820Z,0
2023-02-26T00:16:54.557Z,0
2023-02-26T00:17:55.815Z,0
2023-02-26T00:18:55.003Z,0
2023-02-26T00:19:54.721Z,0
2023-02-26T00:20:55.005Z,0
2023-02-26T00:21:54.881Z,0
2023-02-26T00:22:54.603Z,0
2023-02-26T00:23:54.365Z,0
2023-02-26T00:24:54.069Z,0
2023-02-26T00:25:54.811Z,0
2023-02-26T00:26:54.283Z,0
2023-02-26T00:27:54.763Z,0
2023-02-26T00:28:54.793Z,0
2023-02-26T00:29:54.741Z,0
2023-02-26T00:30:54.377Z,0
2023-02-26T00:31:55.151Z,0
2023-02-26T00:32:54.450Z,0
2023-02-26T00:33:54.396Z,0
2023-02-26T00:34:54.085Z,0
2023-02-26T00:35:54.630Z,0
2023-02-26T00:36:54.660Z,0
2023-02-26T00:37:54.542Z,0
2023-02-26T00:38:54.008Z,0
2023-02-26T00:39:54.502Z,0
2023-02-26T00:40:54.258Z,0
2023-02-26T00:41:54.558Z,0
2023-02-26T00:42:54.204Z,0
2023-02-26T00:43:53.883Z,0
2023-02-26T00:44:54.251Z,0
2023-02-26T00:45:53.890Z,0
2023-02-26T00:46:54.342Z,0
2023-02-26T00:47:53.842Z,0
2023-02-26T00:48:54.068Z,0
2023-02-26T00:49:54.445Z,0
2023-02-26T00:50:53.994Z,0
2023-02-26T00:51:54.305Z,0
2023-02-26T00:52:54.370Z,0
2023-02-26T00:53:53.934Z,0
2023-02-26T00:54:54.180Z,0
2023-02-26T00:55:53.718Z,0
2023-02-26T00:56:54.169Z,0
2023-02-26T00:57:53.859Z,0
2023-02-26T00:58:53.566Z,0
2023-02-26T00:59:54.062Z,0
2023-02-26T01:00:53.538Z,0
2023-02-26T01:01:53.896Z,0
2023-02-26T01:02:53.756Z,0
2023-02-26T01:03:53.984Z,0
2023-02-26T01:04:53.964Z,0
2023-02-26T01:05:53.421Z,0
2023-02-26T01:06:53.908Z,0
2023-02-26T01:07:53.417Z,0
2023-02-26T01:08:53.996Z,0
2023-02-26T01:09:53.865Z,0
2023-02-26T01:10:53.571Z,0
2023-02-26T01:11:53.810Z,0
2023-02-26T01:12:53.551Z,0
2023-02-26T01:13:53.250Z,0
2023-02-26T01:14:53.291Z,0
2023-02-26T01:15:53.891Z,0
2023-02-26T01:16:53.193Z,0
2023-02-26T01:17:53.168Z,0
2023-02-26T01:18:53.409Z,0
2023-02-26T01:19:53.399Z,0
2023-02-26T01:20:53.639Z,0
2023-02-26T01:21:52.834Z,0
2023-02-26T01:22:53.316Z,0
2023-02-26T01:23:53.338Z,0
2023-02-26T01:24:53.832Z,0
2023-02-26T01:25:53.018Z,0
2023-02-26T01:26:53.532Z,0
2023-02-26T01:27:53.216Z,0
2023-02-26T01:28:53.180Z,0
2023-02-26T01:29:53.182Z,0
2023-02-26T01:30:53.475Z,0
2023-02-26T01:31:54.306Z,0
2023-02-26T01:32:53.432Z,0
2023-02-26T01:33:53.433Z,0
2023-02-26T01:35:24.936Z,0
2023-02-26T01:35:53.361Z,0
2023-02-26T01:36:52.596Z,0
2023-02-26T01:37:53.231Z,0
2023-02-26T01:38:52.736Z,0
2023-02-26T01:39:53.380Z,0
2023-02-26T01:40:53.297Z,0
2023-02-26T01:41:53.189Z,0
2023-02-26T01:42:53.235Z,0
2023-02-26T01:43:52.646Z,0
2023-02-26T01:44:52.909Z,0
2023-02-26T01:45:53.093Z,0
2023-02-26T01:46:52.575Z,0
2023-02-26T01:47:52.806Z,0
2023-02-26T01:48:52.755Z,0
2023-02-26T01:49:53.060Z,0
2023-02-26T01:50:52.969Z,0
2023-02-26T01:51:52.719Z,0
2023-02-26T01:52:52.553Z,0
2023-02-26T01:53:52.701Z,0
2023-02-26T01:54:52.666Z,0
2023-02-26T01:55:52.383Z,0
2023-02-26T01:56:52.993Z,0
2023-02-26T01:57:52.571Z,0
2023-02-26T01:58:52.022Z,0
2023-02-26T01:59:52.763Z,0
2023-02-26T02:00:52.510Z,0
2023-02-26T02:01:52.222Z,0
2023-02-26T02:02:53.283Z,0
2023-02-26T02:03:52.630Z,0
2023-02-26T02:04:52.682Z,0
2023-02-26T02:05:52.009Z,0
2023-02-26T02:06:52.102Z,0
2023-02-26T02:07:52.402Z,0
2023-02-26T02:08:52.710Z,0
2023-02-26T02:09:52.554Z,0
2023-02-26T02:10:52.315Z,0
2023-02-26T02:11:52.095Z,0
2023-02-26T02:12:52.613Z,0
2023-02-26T02:13:52.245Z,0
2023-02-26T02:14:52.000Z,0
2023-02-26T02:15:52.226Z,0
2023-02-26T02:16:52.306Z,0
2023-02-26T02:17:52.491Z,0
2023-02-26T02:18:52.370Z,0
2023-02-26T02:19:52.358Z,0
2023-02-26T02:20:51.789Z,0
2023-02-26T02:21:51.782Z,0
2023-02-26T02:22:52.031Z,0
2023-02-26T02:23:52.612Z,0
2023-02-26T02:24:51.876Z,0
2023-02-26T02:25:52.204Z,0
2023-02-26T02:26:52.086Z,0
2023-02-26T02:27:52.012Z,0
2023-02-26T02:28:52.302Z,0
2023-02-26T02:29:51.870Z,0
2023-02-26T02:30:52.593Z,0
2023-02-26T02:31:53.363Z,0
2023-02-26T02:32:52.425Z,0
2023-02-26T02:33:51.502Z,0
2023-02-26T02:34:51.762Z,0
2023-02-26T02:35:51.828Z,0
2023-02-26T02:36:51.454Z,0
2023-02-26T02:37:51.705Z,0
2023-02-26T02:38:51.847Z,0
2023-02-26T02:39:51.933Z,0
2023-02-26T02:40:51.889Z,0
2023-02-26T02:41:52.032Z,0
2023-02-26T02:42:51.342Z,0
2023-02-26T02:43:51.591Z,0
2023-02-26T02:44:51.893Z,0
2023-02-26T02:45:51.919Z,0
2023-02-26T02:46:51.269Z,0
2023-02-26T02:47:51.484Z,0
2023-02-26T02:48:51.625Z,0
2023-02-26T02:49:51.704Z,0
2023-02-26T02:50:50.885Z,0
2023-02-26T02:51:51.479Z,0
2023-02-26T02:52:51.370Z,0
2023-02-26T02:53:51.610Z,0
2023-02-26T02:54:51.135Z,0
2023-02-26T02:55:51.072Z,0
2023-02-26T02:56:51.556Z,0
2023-02-26T02:57:51.001Z,0
2023-02-26T02:58:51.237Z,0
2023-02-26T02:59:51.232Z,0
2023-02-26T03:00:51.887Z,0
2023-02-26T03:01:51.166Z,0
2023-02-26T03:02:50.861Z,0
2023-02-26T03:03:51.123Z,0
2023-02-26T03:04:50.732Z,0
2023-02-26T03:05:51.203Z,0
2023-02-26T03:06:51.314Z,0
2023-02-26T03:07:50.782Z,0
2023-02-26T03:08:51.039Z,0
2023-02-26T03:09:50.754Z,0
2023-02-26T03:10:51.279Z,0
2023-02-26T03:11:50.978Z,0
2023-02-26T03:12:50.928Z,0
2023-02-26T03:13:50.756Z,0
2023-02-26T03:14:50.913Z,0
2023-02-26T03:15:51.575Z,0
2023-02-26T03:16:51.593Z,0
2023-02-26T03:17:51.080Z,0
2023-02-26T03:18:51.064Z,0
2023-02-26T03:19:50.778Z,0
2023-02-26T03:20:50.776Z,0
2023-02-26T03:21:50.764Z,0
2023-02-26T03:22:50.731Z,0
2023-02-26T03:23:50.467Z,0
2023-02-26T03:24:50.687Z,0
2023-02-26T03:25:50.394Z,0
2023-02-26T03:26:50.664Z,0
2023-02-26T03:27:50.638Z,0
2023-02-26T03:28:50.590Z,0
2023-02-26T03:29:50.297Z,0
2023-02-26T03:30:51.110Z,0
2023-02-26T03:31:51.278Z,0
2023-02-26T03:32:50.988Z,0
2023-02-26T03:49:52.704Z,0
2023-02-26T03:50:52.581Z,0
2023-02-26T03:51:52.012Z,0
2023-02-26T03:52:52.002Z,0
2023-02-26T03:53:51.728Z,0
2023-02-26T03:54:52.458Z,0
2023-02-26T03:55:51.941Z,0
2023-02-26T03:56:52.267Z,0
2023-02-26T03:57:51.875Z,0
2023-02-26T03:58:52.113Z,0
2023-02-26T03:59:52.119Z,0
2023-02-26T04:00:52.656Z,0
2023-02-26T04:01:52.341Z,0
2023-02-26T04:02:52.026Z,0
2023-02-26T04:03:52.256Z,0
2023-02-26T04:04:52.413Z,0
2023-02-26T04:05:52.377Z,0
2023-02-26T04:06:51.697Z,0
2023-02-26T04:07:51.677Z,0
2023-02-26T04:08:51.697Z,0
2023-02-26T04:09:52.125Z,0
2023-02-26T04:10:51.838Z,0
2023-02-26T04:11:51.602Z,0
2023-02-26T04:12:51.650Z,0
2023-02-26T04:13:51.786Z,0
2023-02-26T04:14:51.794Z,0
2023-02-26T04:15:51.758Z,0
2023-02-26T04:16:51.900Z,0
2023-02-26T04:17:51.678Z,0
2023-02-26T04:18:51.724Z,0
2023-02-26T04:19:51.919Z,0
2023-02-26T04:20:51.621Z,0
2023-02-26T04:21:52.016Z,0
2023-02-26T04:22:51.360Z,0
2023-02-26T04:23:51.321Z,0
2023-02-26T04:24:51.560Z,0
2023-02-26T04:25:51.294Z,0
2023-02-26T04:26:51.507Z,0
2023-02-26T04:27:52.298Z,0
2023-02-26T04:28:52.032Z,0
2023-02-26T04:29:51.759Z,0
2023-02-26T04:30:52.104Z,0
2023-02-26T04:31:53.155Z,0
2023-02-26T04:32:51.961Z,0
2023-02-26T04:33:51.959Z,0
2023-02-26T04:34:51.933Z,0
2023-02-26T04:35:51.362Z,0
2023-02-26T04:36:51.363Z,0
2023-02-26T04:37:52.239Z,0
2023-02-26T04:38:51.836Z,0
2023-02-26T04:39:51.829Z,0
2023-02-26T04:40:51.801Z,0
2023-02-26T04:41:51.743Z,0
2023-02-26T04:42:54.270Z,0
2023-02-26T04:43:51.288Z,0
2023-02-26T04:44:51.473Z,0
2023-02-26T04:45:51.346Z,0
2023-02-26T04:46:51.471Z,0
2023-02-26T04:47:51.353Z,0
2023-02-26T04:48:51.850Z,0
2023-02-26T04:49:51.573Z,0
2023-02-26T04:50:51.410Z,0
2023-02-26T04:51:51.863Z,0
2023-02-26T04:52:51.764Z,0
2023-02-26T04:53:51.882Z,0
2023-02-26T04:54:51.464Z,0
2023-02-26T04:55:54.349Z,0
2023-02-26T04:56:50.915Z,0
2023-02-26T04:57:51.241Z,0
2023-02-26T04:58:51.469Z,0
2023-02-26T04:59:51.390Z,0
2023-02-26T05:00:51.331Z,0
2023-02-26T05:01:52.008Z,0
2023-02-26T05:02:51.549Z,0
2023-02-26T05:03:51.279Z,0
2023-02-26T05:04:51.593Z,0
2023-02-26T05:05:50.979Z,0
2023-02-26T05:06:51.196Z,0
2023-02-26T05:07:51.440Z,0
2023-02-26T05:08:51.438Z,0
2023-02-26T05:09:51.565Z,0
2023-02-26T05:10:51.162Z,0
2023-02-26T05:11:50.844Z,0
2023-02-26T05:12:51.082Z,0
2023-02-26T05:13:51.076Z,0
2023-02-26T05:14:50.801Z,0
2023-02-26T05:15:51.232Z,0
2023-02-26T05:16:51.250Z,0
2023-02-26T05:17:50.715Z,0
2023-02-26T05:18:50.978Z,0
2023-02-26T05:19:50.684Z,0
2023-02-26T05:20:50.652Z,0
2023-02-26T05:21:50.898Z,0
2023-02-26T05:22:50.887Z,0
2023-02-26T05:23:50.850Z,0
2023-02-26T05:24:50.832Z,0
2023-02-26T05:25:51.204Z,0
2023-02-26T05:26:50.549Z,0
2023-02-26T05:27:50.772Z,0
2023-02-26T05:28:51.019Z,0
2023-02-26T05:29:50.733Z,0
2023-02-26T05:30:51.008Z,0
2023-02-26T05:31:51.575Z,0
2023-02-26T05:32:50.141Z,0
2023-02-26T05:33:50.409Z,0
2023-02-26T05:34:50.360Z,0
2023-02-26T05:35:50.924Z,0
2023-02-26T05:36:50.069Z,0
2023-02-26T05:37:50.562Z,0
2023-02-26T05:38:50.281Z,0
2023-02-26T05:39:50.508Z,0
2023-02-26T05:40:50.494Z,0
2023-02-26T05:41:50.873Z,0
2023-02-26T05:42:50.441Z,0
2023-02-26T05:43:50.421Z,0
2023-02-26T05:44:50.658Z,0
2023-02-26T05:45:50.358Z,0
2023-02-26T05:46:50.253Z,0
2023-02-26T05:47:50.457Z,0
2023-02-26T05:48:52.982Z,0
2023-02-26T05:49:50.038Z,0
2023-02-26T05:50:50.022Z,0
2023-02-26T05:51:50.021Z,0
2023-02-26T05:52:50.216Z,0
2023-02-26T05:53:50.355Z,0
2023-02-26T05:54:50.446Z,0
2023-02-26T05:55:50.442Z,0
2023-02-26T05:56:50.393Z,0
2023-02-26T05:57:50.505Z,0
2023-02-26T05:58:50.146Z,0
2023-02-26T05:59:50.250Z,0
2023-02-26T06:00:50.309Z,0
2023-02-26T06:01:50.225Z,0
2023-02-26T06:02:50.236Z,0
2023-02-26T06:03:50.022Z,0
2023-02-26T06:04:50.220Z,0
2023-02-26T06:05:49.973Z,5
2023-02-26T06:06:49.933Z,5
2023-02-26T06:07:51.453Z,5
2023-02-26T06:08:49.709Z,5
2023-02-26T06:09:49.900Z,5
2023-02-26T06:10:49.852Z,5
2023-02-26T06:11:49.899Z,5
2023-02-26T06:12:49.830Z,10
2023-02-26T06:13:50.177Z,10
2023-02-26T06:14:50.039Z,10
2023-02-26T06:15:49.500Z,10
2023-02-26T06:16:50.263Z,10
2023-02-26T06:17:50.632Z,10
2023-02-26T06:18:49.442Z,10
2023-02-26T06:19:49.640Z,15
2023-02-26T06:20:49.110Z,15
2023-02-26T06:21:49.607Z,15
2023-02-26T06:22:49.586Z,15
2023-02-26T06:23:49.574Z,15
2023-02-26T06:24:49.312Z,15
2023-02-26T06:25:49.276Z,15
2023-02-26T06:26:49.738Z,15
2023-02-26T06:27:49.774Z,15
2023-02-26T06:28:49.465Z,15
2023-02-26T06:29:49.838Z,15
2023-02-26T06:30:50.021Z,15
2023-02-26T06:31:50.236Z,15
2023-02-26T06:32:49.529Z,10
2023-02-26T06:33:49.389Z,15
2023-02-26T06:34:49.091Z,15
2023-02-26T06:35:49.317Z,15
2023-02-26T06:36:49.296Z,15
2023-02-26T06:37:49.501Z,15
2023-02-26T06:38:49.737Z,15
2023-02-26T06:39:49.177Z,15
2023-02-26T06:40:49.176Z,20
2023-02-26T06:41:48.924Z,20
2023-02-26T06:42:49.389Z,20
2023-02-26T06:43:49.401Z,20
2023-02-26T06:44:49.340Z,20
2023-02-26T06:45:50.115Z,25
2023-02-26T06:46:49.277Z,25
2023-02-26T06:47:49.290Z,25
2023-02-26T06:48:48.978Z,30
2023-02-26T06:49:48.994Z,35
2023-02-26T06:50:48.971Z,35
2023-02-26T06:51:49.452Z,30
2023-02-26T06:52:49.189Z,30
2023-02-26T06:53:48.658Z,30
2023-02-26T06:54:49.389Z,35
2023-02-26T06:55:49.358Z,40
2023-02-26T06:56:49.348Z,40
2023-02-26T06:57:49.155Z,45
2023-02-26T06:58:49.158Z,50
2023-02-26T06:59:49.560Z,50
2023-02-26T07:00:49.869Z,55
2023-02-26T07:01:49.872Z,50
2023-02-26T07:02:49.710Z,55
2023-02-26T07:03:49.047Z,55
2023-02-26T07:04:49.279Z,60
2023-02-26T07:05:49.004Z,60
2023-02-26T07:06:50.328Z,55
2023-02-26T07:07:49.634Z,65
2023-02-26T07:08:49.114Z,70
2023-02-26T07:09:51.623Z,75
2023-02-26T07:10:49.133Z,75
2023-02-26T07:11:49.406Z,75
2023-02-26T07:12:49.402Z,75
2023-02-26T07:13:48.969Z,75
2023-02-26T07:14:48.819Z,75
2023-02-26T07:15:51.037Z,75
2023-02-26T07:16:49.044Z,70
2023-02-26T07:17:49.398Z,60
2023-02-26T07:18:48.769Z,60
2023-02-26T07:19:48.976Z,65
2023-02-26T07:20:48.977Z,65
2023-02-26T07:21:49.013Z,70
2023-02-26T07:22:48.727Z,75
2023-02-26T07:23:49.138Z,75
2023-02-26T07:24:48.853Z,75
2023-02-26T07:25:48.308Z,80
2023-02-26T07:26:48.806Z,85
2023-02-26T07:27:50.291Z,85
2023-02-26T07:28:48.526Z,95
2023-02-26T07:29:48.501Z,95
2023-02-26T07:30:49.201Z,100
2023-02-26T07:31:49.273Z,110
2023-02-26T07:32:48.688Z,110
2023-02-26T07:33:49.069Z,110
2023-02-26T07:34:48.911Z,105
2023-02-26T07:35:48.620Z,90
2023-02-26T07:36:48.872Z,80
2023-02-26T07:37:48.819Z,85
2023-02-26T07:38:49.273Z,95
2023-02-26T07:39:48.566Z,110
2023-02-26T07:40:48.285Z,105
2023-02-26T07:41:48.257Z,115
2023-02-26T07:42:48.492Z,120
2023-02-26T07:43:48.186Z,120
2023-02-26T07:44:48.435Z,120
2023-02-26T07:45:48.809Z,115
2023-02-26T07:46:48.221Z,120
2023-02-26T07:47:48.612Z,125
2023-02-26T07:48:48.356Z,130
2023-02-26T07:49:48.718Z,135
2023-02-26T07:50:48.047Z,145
2023-02-26T07:51:48.287Z,145
2023-02-26T07:52:48.005Z,130
2023-02-26T07:53:48.508Z,125
2023-02-26T07:54:48.483Z,120
2023-02-26T07:55:48.478Z,130
2023-02-26T07:56:48.162Z,115
2023-02-26T07:57:48.409Z,95
2023-02-26T07:58:48.178Z,85
2023-02-26T07:59:48.374Z,85
2023-02-26T08:00:48.377Z,85
2023-02-26T08:01:48.149Z,85
2023-02-26T08:02:48.083Z,85
2023-02-26T08:03:48.451Z,90
2023-02-26T08:04:48.016Z,95
2023-02-26T08:05:48.365Z,85
2023-02-26T08:06:48.250Z,95
2023-02-26T08:07:48.264Z,110
2023-02-26T08:08:47.707Z,120
2023-02-26T08:09:48.156Z,130
2023-02-26T08:10:51.234Z,115
2023-02-26T08:11:47.904Z,110
2023-02-26T08:12:47.613Z,105
2023-02-26T08:13:47.321Z,110
2023-02-26T08:14:47.549Z,105
2023-02-26T08:15:47.918Z,85
2023-02-26T08:16:48.126Z,80
2023-02-26T08:17:48.014Z,90
2023-02-26T08:18:47.982Z,110
2023-02-26T08:19:47.468Z,120
2023-02-26T08:20:47.722Z,120
2023-02-26T08:21:50.001Z,115
2023-02-26T08:22:47.666Z,125
2023-02-26T08:23:47.384Z,135
2023-02-26T08:24:47.606Z,155
2023-02-26T08:25:47.339Z,170
2023-02-26T08:26:47.831Z,185
2023-02-26T08:27:47.588Z,200
2023-02-26T08:28:47.802Z,200
2023-02-26T08:29:47.547Z,185
2023-02-26T08:30:47.948Z,185
2023-02-26T08:31:48.465Z,175
2023-02-26T08:32:47.620Z,180
2023-02-26T08:33:47.168Z,175
2023-02-26T08:34:47.734Z,165
2023-02-26T08:35:47.460Z,150
2023-02-26T08:36:47.714Z,180
2023-02-26T08:37:47.814Z,180
2023-02-26T08:38:47.142Z,170
2023-02-26T08:39:47.120Z,140
2023-02-26T08:40:47.604Z,145
2023-02-26T08:41:47.105Z,150
2023-02-26T08:42:47.293Z,170
2023-02-26T08:43:47.285Z,155
2023-02-26T08:44:47.536Z,155
2023-02-26T08:45:47.502Z,150
2023-02-26T08:46:47.634Z,155
2023-02-26T08:48:04.270Z,130
2023-02-26T08:48:47.192Z,125
2023-02-26T08:49:46.648Z,135
2023-02-26T08:50:47.413Z,155
2023-02-26T08:51:47.122Z,170
2023-02-26T08:52:47.102Z,180
2023-02-26T08:53:47.539Z,190
2023-02-26T08:54:47.103Z,195
2023-02-26T08:55:46.865Z,185
2023-02-26T08:56:47.048Z,175
2023-02-26T08:57:46.993Z,180
2023-02-26T08:58:47.011Z,195
2023-02-26T08:59:46.972Z,195
2023-02-26T09:00:46.441Z,185
2023-02-26T09:01:47.437Z,175
2023-02-26T09:02:47.601Z,175
2023-02-26T09:03:47.210Z,190
2023-02-26T09:04:46.986Z,185
2023-02-26T09:05:46.334Z,170
2023-02-26T09:06:46.828Z,170
2023-02-26T09:07:46.559Z,165
2023-02-26T09:08:46.525Z,165
2023-02-26T09:09:47.213Z,155
2023-02-26T09:10:48.226Z,150
2023-02-26T09:11:46.281Z,150
2023-02-26T09:12:47.018Z,160
2023-02-26T09:13:46.933Z,190
2023-02-26T09:14:46.675Z,175
2023-02-26T09:15:46.635Z,160
2023-02-26T09:16:48.462Z,145
2023-02-26T09:17:46.581Z,155
2023-02-26T09:18:46.332Z,160
2023-02-26T09:19:46.594Z,165
2023-02-26T09:20:46.333Z,170
2023-02-26T09:21:46.508Z,180
2023-02-26T09:22:46.767Z,215
2023-02-26T09:23:46.473Z,215
2023-02-26T09:24:46.569Z,200
2023-02-26T09:25:46.877Z,205
2023-02-26T09:26:46.164Z,210
2023-02-26T09:27:46.182Z,235
2023-02-26T09:28:46.498Z,220
2023-02-26T09:29:46.592Z,220
2023-02-26T09:30:46.721Z,210
2023-02-26T09:31:47.558Z,205
2023-02-26T09:32:46.522Z,225
2023-02-26T09:33:46.018Z,245
2023-02-26T09:34:45.754Z,260
2023-02-26T09:35:46.234Z,275
2023-02-26T09:36:46.227Z,270
2023-02-26T09:37:46.198Z,245
2023-02-26T09:38:46.418Z,245
2023-02-26T09:39:46.166Z,230
2023-02-26T09:40:46.136Z,235
2023-02-26T09:41:46.489Z,250
2023-02-26T09:42:46.089Z,230
2023-02-26T09:43:46.056Z,230
2023-02-26T09:44:46.045Z,210
2023-02-26T09:45:48.787Z,215
2023-02-26T09:46:45.742Z,220
2023-02-26T09:47:45.764Z,210
2023-02-26T09:48:45.707Z,185
2023-02-26T09:49:46.200Z,180
2023-02-26T09:50:45.724Z,190
2023-02-26T09:51:45.404Z,215
2023-02-26T09:52:46.149Z,190
2023-02-26T09:53:46.205Z,175
2023-02-26T09:54:45.919Z,215
2023-02-26T09:55:45.653Z,200
2023-02-26T09:56:45.840Z,175
2023-02-26T09:57:46.162Z,155
2023-02-26T09:58:46.037Z,160
2023-02-26T09:59:45.751Z,185
2023-02-26T10:00:45.999Z,205
2023-02-26T10:01:46.268Z,235
2023-02-26T10:02:45.413Z,255
2023-02-26T10:03:45.907Z,265
2023-02-26T10:04:45.645Z,250
2023-02-26T10:05:45.388Z,265
2023-02-26T10:06:45.855Z,300
2023-02-26T10:07:45.616Z,305
2023-02-26T10:08:45.849Z,300
2023-02-26T10:09:45.322Z,305
2023-02-26T10:10:45.037Z,305
2023-02-26T10:11:45.789Z,300
2023-02-26T10:12:45.549Z,270
2023-02-26T10:14:04.610Z,255
2023-02-26T10:14:45.220Z,265
2023-02-26T10:15:45.673Z,255
2023-02-26T10:16:45.684Z,255
2023-02-26T10:17:45.456Z,245
2023-02-26T10:18:45.400Z,220
2023-02-26T10:19:45.614Z,210
2023-02-26T10:20:45.715Z,220
2023-02-26T10:21:45.324Z,230
2023-02-26T10:22:46.695Z,245
2023-02-26T10:23:48.468Z,245
2023-02-26T10:24:45.510Z,250
2023-02-26T10:25:45.246Z,255
2023-02-26T10:26:44.699Z,270
2023-02-26T10:27:45.174Z,290
2023-02-26T10:28:46.730Z,305
2023-02-26T10:29:45.535Z,305
2023-02-26T10:30:45.192Z,285
2023-02-26T10:31:45.257Z,325
2023-02-26T10:32:46.139Z,330
2023-02-26T10:33:44.545Z,350
2023-02-26T10:34:45.053Z,345
2023-02-26T10:35:44.779Z,310
2023-02-26T10:36:45.016Z,320
2023-02-26T10:37:44.995Z,330
2023-02-26T10:38:44.977Z,340
2023-02-26T10:39:44.953Z,360
2023-02-26T10:40:45.181Z,350
2023-02-26T10:41:44.392Z,345
2023-02-26T10:42:44.894Z,340
2023-02-26T10:43:44.938Z,320
2023-02-26T10:44:44.586Z,325
2023-02-26T10:45:45.546Z,325
2023-02-26T10:46:44.539Z,325
2023-02-26T10:47:46.990Z,305
2023-02-26T10:48:44.502Z,310
2023-02-26T10:49:44.509Z,285
2023-02-26T10:50:44.756Z,300
2023-02-26T10:51:44.786Z,335
2023-02-26T10:52:44.581Z,305
2023-02-26T10:53:47.367Z,265
2023-02-26T10:54:44.667Z,295
2023-02-26T10:55:44.679Z,275
2023-02-26T10:56:44.358Z,250
2023-02-26T10:57:44.612Z,215
2023-02-26T10:58:44.588Z,220
2023-02-26T10:59:44.574Z,210
2023-02-26T11:00:44.802Z,230
2023-02-26T11:01:45.210Z,230
2023-02-26T11:02:44.654Z,205
2023-02-26T11:03:44.743Z,165
2023-02-26T11:04:44.462Z,150
2023-02-26T11:05:44.441Z,155
2023-02-26T11:06:44.669Z,145
2023-02-26T11:07:44.664Z,150
2023-02-26T11:08:44.411Z,170
2023-02-26T11:09:44.368Z,205
2023-02-26T11:10:44.602Z,220
2023-02-26T11:11:44.044Z,215
2023-02-26T11:12:44.328Z,205
2023-02-26T11:13:44.296Z,235
2023-02-26T11:14:44.259Z,235
2023-02-26T11:15:44.571Z,225
2023-02-26T11:16:44.223Z,240
2023-02-26T11:17:44.572Z,255
2023-02-26T11:18:44.002Z,265
2023-02-26T11:19:44.144Z,275
2023-02-26T11:20:44.413Z,260
2023-02-26T11:21:44.410Z,250
2023-02-26T11:22:43.835Z,260
2023-02-26T11:23:44.073Z,235
2023-02-26T11:24:44.471Z,225
2023-02-26T11:25:45.533Z,220
2023-02-26T11:26:44.442Z,220
2023-02-26T11:27:43.900Z,225
2023-02-26T11:28:43.887Z,210
2023-02-26T11:29:44.368Z,195
2023-02-26T11:30:44.055Z,185
2023-02-26T11:31:47.314Z,190
2023-02-26T11:32:44.278Z,205
2023-02-26T11:33:44.450Z,200
2023-02-26T11:34:44.312Z,220
2023-02-26T11:35:44.005Z,235
2023-02-26T11:36:43.960Z,215
2023-02-26T11:37:43.957Z,175
2023-02-26T11:38:43.974Z,175
2023-02-26T11:39:43.722Z,220
2023-02-26T11:40:43.917Z,230
2023-02-26T11:41:43.616Z,200
2023-02-26T11:42:43.322Z,220
2023-02-26T11:43:46.821Z,200
2023-02-26T11:44:43.970Z,195
2023-02-26T11:45:44.087Z,180
2023-02-26T11:46:43.830Z,205
2023-02-26T11:47:43.508Z,220
2023-02-26T11:48:43.496Z,240
2023-02-26T11:49:44.131Z,210
2023-02-26T11:50:45.798Z,175
2023-02-26T11:51:43.929Z,185
2023-02-26T11:52:44.951Z,180
2023-02-26T11:53:44.675Z,205
2023-02-26T11:54:44.406Z,215
2023-02-26T11:55:44.609Z,225
2023-02-26T11:56:44.445Z,185
2023-02-26T11:57:44.576Z,180
2023-02-26T11:58:44.604Z,170
2023-02-26T11:59:44.534Z,165
2023-02-26T12:00:44.507Z,150
2023-02-26T12:01:44.225Z,145
2023-02-26T12:02:44.936Z,155
2023-02-26T12:03:44.263Z,160
2023-02-26T12:04:44.174Z,185
2023-02-26T12:05:44.845Z,205
2023-02-26T12:06:44.125Z,195
2023-02-26T12:07:43.870Z,185
2023-02-26T12:08:44.627Z,180
2023-02-26T12:09:44.363Z,200
2023-02-26T12:10:44.041Z,220
2023-02-26T12:11:44.297Z,220
2023-02-26T12:12:44.521Z,210
2023-02-26T12:13:44.249Z,190
2023-02-26T12:14:44.278Z,195
2023-02-26T12:15:44.643Z,165
2023-02-26T12:16:44.334Z,155
2023-02-26T12:17:44.489Z,160
2023-02-26T12:18:43.920Z,160
2023-02-26T12:19:43.611Z,145
2023-02-26T12:20:44.364Z,155
2023-02-26T12:21:44.500Z,150
2023-02-26T12:22:43.581Z,165
2023-02-26T12:23:44.093Z,170
2023-02-26T12:24:43.785Z,165
2023-02-26T12:25:43.858Z,180
2023-02-26T12:26:44.023Z,160
2023-02-26T12:27:44.244Z,160
2023-02-26T12:28:44.062Z,170
2023-02-26T12:29:43.964Z,155
2023-02-26T12:30:43.891Z,190
2023-02-26T12:31:44.726Z,190
2023-02-26T12:32:43.959Z,155
2023-02-26T12:33:43.844Z,150
2023-02-26T12:34:43.846Z,155
2023-02-26T12:35:43.835Z,175
2023-02-26T12:36:58.177Z,170
2023-02-26T12:37:43.806Z,160
2023-02-26T12:38:43.806Z,160
2023-02-26T12:39:43.467Z,150
2023-02-26T12:40:43.688Z,140
2023-02-26T12:41:43.942Z,145
2023-02-26T12:42:43.409Z,170
2023-02-26T12:43:45.088Z,185
2023-02-26T12:44:43.886Z,215
2023-02-26T12:45:43.610Z,245
2023-02-26T12:46:44.077Z,230
2023-02-26T12:47:43.653Z,205
2023-02-26T12:48:44.071Z,205
2023-02-26T12:49:43.537Z,190
2023-02-26T12:50:42.996Z,175
2023-02-26T12:51:43.253Z,155
2023-02-26T12:52:43.813Z,155
2023-02-26T12:53:43.776Z,145
2023-02-26T12:54:46.118Z,145
2023-02-26T12:55:43.164Z,150
2023-02-26T12:56:43.373Z,155
2023-02-26T12:57:43.612Z,180
2023-02-26T12:58:43.614Z,165
2023-02-26T12:59:43.327Z,185
2023-02-26T13:00:43.219Z,215
2023-02-26T13:02:00.794Z,205
2023-02-26T13:02:43.278Z,195
2023-02-26T13:03:43.485Z,190
2023-02-26T13:04:42.988Z,215
2023-02-26T13:05:42.973Z,205
2023-02-26T13:06:42.932Z,210
2023-02-26T13:07:43.252Z,190
2023-02-26T13:08:43.615Z,195
2023-02-26T13:09:43.435Z,185
2023-02-26T13:10:43.346Z,190
2023-02-26T13:11:43.321Z,175
2023-02-26T13:12:42.821Z,165
2023-02-26T13:13:43.313Z,150
2023-02-26T13:14:43.103Z,150
2023-02-26T13:15:43.020Z,180
2023-02-26T13:16:42.817Z,185
2023-02-26T13:17:42.466Z,185
2023-02-26T13:18:42.287Z,175
2023-02-26T13:19:42.527Z,175
2023-02-26T13:20:42.659Z,175
2023-02-26T13:21:42.875Z,170
2023-02-26T13:22:42.856Z,160
2023-02-26T13:23:42.936Z,150
2023-02-26T13:24:43.263Z,160
2023-02-26T13:25:42.827Z,160
2023-02-26T13:26:42.601Z,165
2023-02-26T13:27:42.297Z,155
2023-02-26T13:28:43.056Z,150
2023-02-26T13:29:42.234Z,150
2023-02-26T13:30:42.588Z,145
2023-02-26T13:31:43.989Z,165
2023-02-26T13:32:43.740Z,165
2023-02-26T13:33:42.392Z,150
2023-02-26T13:34:42.625Z,135
2023-02-26T13:35:43.501Z,135
2023-02-26T13:36:44.752Z,150
2023-02-26T13:37:42.818Z,150
2023-02-26T13:38:42.284Z,150
2023-02-26T13:39:42.250Z,150
2023-02-26T13:40:42.652Z,160
2023-02-26T13:41:45.296Z,160
2023-02-26T13:42:42.466Z,150
2023-02-26T13:43:42.675Z,145
2023-02-26T13:44:42.477Z,145
2023-02-26T13:45:42.958Z,140
2023-02-26T13:46:42.349Z,140
2023-02-26T13:47:42.996Z,135
2023-02-26T13:48:42.590Z,120
2023-02-26T13:49:42.290Z,130
2023-02-26T13:50:41.855Z,150
2023-02-26T13:51:42.063Z,150
2023-02-26T13:52:41.718Z,145
2023-02-26T13:53:41.956Z,140
2023-02-26T13:54:42.496Z,135
2023-02-26T13:55:42.433Z,145
2023-02-26T13:56:42.328Z,150
2023-02-26T13:57:42.510Z,165
2023-02-26T13:58:42.141Z,200
2023-02-26T13:59:42.431Z,215
2023-02-26T14:00:42.106Z,220
2023-02-26T14:01:41.960Z,225
2023-02-26T14:02:42.274Z,240
2023-02-26T14:03:42.370Z,250
2023-02-26T14:04:42.450Z,265
2023-02-26T14:05:41.750Z,265
2023-02-26T14:06:41.962Z,250
2023-02-26T14:07:41.965Z,245
2023-02-26T14:08:42.200Z,245
2023-02-26T14:09:42.213Z,220
2023-02-26T14:10:41.644Z,210
2023-02-26T14:11:41.926Z,195
2023-02-26T14:12:42.237Z,200
2023-02-26T14:13:41.865Z,195
2023-02-26T14:14:42.072Z,195
2023-02-26T14:15:41.250Z,185
2023-02-26T14:16:41.993Z,160
2023-02-26T14:17:41.747Z,155
2023-02-26T14:18:41.773Z,165
2023-02-26T14:19:41.674Z,145
2023-02-26T14:20:41.652Z,120
2023-02-26T14:21:41.656Z,95
2023-02-26T14:22:41.687Z,75
2023-02-26T14:23:41.863Z,60
2023-02-26T14:24:41.817Z,85
2023-02-26T14:25:41.821Z,115
2023-02-26T14:26:41.843Z,135
2023-02-26T14:27:41.294Z,125
2023-02-26T14:28:41.862Z,120
2023-02-26T14:29:41.765Z,125
2023-02-26T14:30:42.405Z,135